sensor_id;sensor_type;location;lat;lon;timestamp;temperature;humidity
44537;DHT22;30245;51.966;6.292;2023-10-13T00:01:58;22.50;70.10
44537;DHT22;30245;51.966;6.292;2023-10-13T00:04:28;22.50;70.20
44537;DHT22;30245;51.966;6.292;2023-10-13T00:06:55;22.40;70.20
44537;DHT22;30245;51.966;6.292;2023-10-13T00:09:25;22.40;70.30
44537;DHT22;30245;51.966;6.292;2023-10-13T00:11:55;22.40;70.30
44537;DHT22;30245;51.966;6.292;2023-10-13T00:14:21;22.40;70.30
44537;DHT22;30245;51.966;6.292;2023-10-13T00:16:47;22.50;70.20
44537;DHT22;30245;51.966;6.292;2023-10-13T00:19:36;22.40;70.20
44537;DHT22;30245;51.966;6.292;2023-10-13T00:22:04;22.30;70.50
44537;DHT22;30245;51.966;6.292;2023-10-13T00:24:34;22.20;70.70
44537;DHT22;30245;51.966;6.292;2023-10-13T00:27:08;22.20;71.00
44537;DHT22;30245;51.966;6.292;2023-10-13T00:29:39;22.20;70.80
44537;DHT22;30245;51.966;6.292;2023-10-13T00:32:04;22.20;70.80
44537;DHT22;30245;51.966;6.292;2023-10-13T00:34:30;22.30;70.70
44537;DHT22;30245;51.966;6.292;2023-10-13T00:36:58;22.30;70.60
44537;DHT22;30245;51.966;6.292;2023-10-13T00:39:44;22.30;70.60
44537;DHT22;30245;51.966;6.292;2023-10-13T00:42:10;22.40;70.40
44537;DHT22;30245;51.966;6.292;2023-10-13T00:44:45;22.40;70.30
44537;DHT22;30245;51.966;6.292;2023-10-13T00:47:15;22.30;70.40
44537;DHT22;30245;51.966;6.292;2023-10-13T00:49:46;22.30;70.40
44537;DHT22;30245;51.966;6.292;2023-10-13T00:52:14;22.30;70.50
44537;DHT22;30245;51.966;6.292;2023-10-13T00:54:42;22.30;70.50
44537;DHT22;30245;51.966;6.292;2023-10-13T00:57:13;22.40;70.50
44537;DHT22;30245;51.966;6.292;2023-10-13T00:59:55;22.40;70.50
44537;DHT22;30245;51.966;6.292;2023-10-13T01:02:21;22.40;70.40
44537;DHT22;30245;51.966;6.292;2023-10-13T01:05:06;22.30;70.40
44537;DHT22;30245;51.966;6.292;2023-10-13T01:07:35;22.40;70.40
44537;DHT22;30245;51.966;6.292;2023-10-13T01:10:03;22.40;70.30
44537;DHT22;30245;51.966;6.292;2023-10-13T01:12:30;22.40;70.30
44537;DHT22;30245;51.966;6.292;2023-10-13T01:14:56;22.40;70.30
44537;DHT22;30245;51.966;6.292;2023-10-13T01:17:22;22.40;70.30
44537;DHT22;30245;51.966;6.292;2023-10-13T01:19:49;22.40;70.30
44537;DHT22;30245;51.966;6.292;2023-10-13T01:22:15;22.40;70.40
44537;DHT22;30245;51.966;6.292;2023-10-13T01:24:40;22.40;70.30
44537;DHT22;30245;51.966;6.292;2023-10-13T01:27:07;22.40;70.20
44537;DHT22;30245;51.966;6.292;2023-10-13T01:29:50;22.40;70.20
44537;DHT22;30245;51.966;6.292;2023-10-13T01:32:19;22.40;70.40
44537;DHT22;30245;51.966;6.292;2023-10-13T01:34:45;22.30;70.40
44537;DHT22;30245;51.966;6.292;2023-10-13T01:37:12;22.30;70.50
44537;DHT22;30245;51.966;6.292;2023-10-13T01:39:38;22.30;70.60
44537;DHT22;30245;51.966;6.292;2023-10-13T01:42:03;22.30;70.50
44537;DHT22;30245;51.966;6.292;2023-10-13T01:44:31;22.30;70.40
44537;DHT22;30245;51.966;6.292;2023-10-13T01:46:58;22.30;70.40
44537;DHT22;30245;51.966;6.292;2023-10-13T01:49:25;22.40;70.40
44537;DHT22;30245;51.966;6.292;2023-10-13T01:51:50;22.30;70.40
44537;DHT22;30245;51.966;6.292;2023-10-13T01:54:16;22.30;70.40
44537;DHT22;30245;51.966;6.292;2023-10-13T01:56:42;22.30;70.40
44537;DHT22;30245;51.966;6.292;2023-10-13T01:59:10;22.40;70.40
44537;DHT22;30245;51.966;6.292;2023-10-13T02:01:36;22.40;70.30
44537;DHT22;30245;51.966;6.292;2023-10-13T02:04:02;22.30;70.40
44537;DHT22;30245;51.966;6.292;2023-10-13T02:06:33;22.30;70.40
44537;DHT22;30245;51.966;6.292;2023-10-13T02:09:06;22.30;70.60
44537;DHT22;30245;51.966;6.292;2023-10-13T02:11:39;22.20;70.50
44537;DHT22;30245;51.966;6.292;2023-10-13T02:14:05;22.30;70.50
44537;DHT22;30245;51.966;6.292;2023-10-13T02:16:30;22.40;70.40
44537;DHT22;30245;51.966;6.292;2023-10-13T02:18:57;22.30;70.30
44537;DHT22;30245;51.966;6.292;2023-10-13T02:21:23;22.30;70.50
44537;DHT22;30245;51.966;6.292;2023-10-13T02:23:57;22.30;70.50
44537;DHT22;30245;51.966;6.292;2023-10-13T02:26:26;22.30;70.40
44537;DHT22;30245;51.966;6.292;2023-10-13T02:29:01;22.30;70.20
44537;DHT22;30245;51.966;6.292;2023-10-13T02:31:34;22.30;70.10
44537;DHT22;30245;51.966;6.292;2023-10-13T02:33:59;22.30;70.10
44537;DHT22;30245;51.966;6.292;2023-10-13T02:36:26;22.30;70.20
44537;DHT22;30245;51.966;6.292;2023-10-13T02:39:10;22.30;70.30
44537;DHT22;30245;51.966;6.292;2023-10-13T02:41:36;22.20;70.30
44537;DHT22;30245;51.966;6.292;2023-10-13T02:44:05;22.30;70.30
44537;DHT22;30245;51.966;6.292;2023-10-13T02:46:32;22.30;70.10
44537;DHT22;30245;51.966;6.292;2023-10-13T02:49:01;22.30;70.10
44537;DHT22;30245;51.966;6.292;2023-10-13T02:51:35;22.30;69.90
44537;DHT22;30245;51.966;6.292;2023-10-13T02:54:01;22.40;69.90
44537;DHT22;30245;51.966;6.292;2023-10-13T02:56:34;22.30;70.00
44537;DHT22;30245;51.966;6.292;2023-10-13T02:59:02;22.30;70.10
44537;DHT22;30245;51.966;6.292;2023-10-13T03:01:34;22.30;70.10
44537;DHT22;30245;51.966;6.292;2023-10-13T03:04:02;22.30;69.90
44537;DHT22;30245;51.966;6.292;2023-10-13T03:06:38;22.30;70.10
44537;DHT22;30245;51.966;6.292;2023-10-13T03:09:09;22.30;70.20
44537;DHT22;30245;51.966;6.292;2023-10-13T03:11:43;22.20;70.20
44537;DHT22;30245;51.966;6.292;2023-10-13T03:14:23;22.20;70.30
44537;DHT22;30245;51.966;6.292;2023-10-13T03:17:01;22.20;70.30
44537;DHT22;30245;51.966;6.292;2023-10-13T03:19:42;22.30;70.10
44537;DHT22;30245;51.966;6.292;2023-10-13T03:22:11;22.20;70.10
44537;DHT22;30245;51.966;6.292;2023-10-13T03:24:41;22.20;70.30
44537;DHT22;30245;51.966;6.292;2023-10-13T03:27:10;22.20;70.20
44537;DHT22;30245;51.966;6.292;2023-10-13T03:29:44;22.20;70.20
44537;DHT22;30245;51.966;6.292;2023-10-13T03:32:15;22.20;70.30
44537;DHT22;30245;51.966;6.292;2023-10-13T03:34:45;22.20;70.30
44537;DHT22;30245;51.966;6.292;2023-10-13T03:37:26;22.30;70.10
44537;DHT22;30245;51.966;6.292;2023-10-13T03:40:08;22.40;69.80
44537;DHT22;30245;51.966;6.292;2023-10-13T03:42:52;22.40;69.80
44537;DHT22;30245;51.966;6.292;2023-10-13T03:45:33;22.40;69.70
44537;DHT22;30245;51.966;6.292;2023-10-13T03:48:07;22.40;69.90
44537;DHT22;30245;51.966;6.292;2023-10-13T03:50:37;22.40;69.70
44537;DHT22;30245;51.966;6.292;2023-10-13T03:53:11;22.50;69.60
44537;DHT22;30245;51.966;6.292;2023-10-13T03:55:38;22.50;69.40
44537;DHT22;30245;51.966;6.292;2023-10-13T03:58:04;22.50;69.40
44537;DHT22;30245;51.966;6.292;2023-10-13T04:00:30;22.50;69.60
44537;DHT22;30245;51.966;6.292;2023-10-13T04:02:57;22.50;69.70
44537;DHT22;30245;51.966;6.292;2023-10-13T04:05:32;22.50;69.80
44537;DHT22;30245;51.966;6.292;2023-10-13T04:08:04;22.50;69.80
44537;DHT22;30245;51.966;6.292;2023-10-13T04:11:05;22.50;69.80
44537;DHT22;30245;51.966;6.292;2023-10-13T04:13:49;22.50;69.80
44537;DHT22;30245;51.966;6.292;2023-10-13T04:16:35;22.50;69.80
44537;DHT22;30245;51.966;6.292;2023-10-13T04:19:02;22.40;69.90
44537;DHT22;30245;51.966;6.292;2023-10-13T04:21:27;22.40;69.90
44537;DHT22;30245;51.966;6.292;2023-10-13T04:24:08;22.40;69.90
44537;DHT22;30245;51.966;6.292;2023-10-13T04:26:48;22.40;70.00
44537;DHT22;30245;51.966;6.292;2023-10-13T04:29:32;22.40;69.90
44537;DHT22;30245;51.966;6.292;2023-10-13T04:32:17;22.40;69.90
44537;DHT22;30245;51.966;6.292;2023-10-13T04:34:57;22.30;70.10
44537;DHT22;30245;51.966;6.292;2023-10-13T04:37:37;22.30;70.20
44537;DHT22;30245;51.966;6.292;2023-10-13T04:40:21;22.30;70.00
44537;DHT22;30245;51.966;6.292;2023-10-13T04:43:00;22.30;70.00
44537;DHT22;30245;51.966;6.292;2023-10-13T04:45:30;22.30;70.00
44537;DHT22;30245;51.966;6.292;2023-10-13T04:47:57;22.30;70.00
44537;DHT22;30245;51.966;6.292;2023-10-13T04:50:38;22.30;70.00
44537;DHT22;30245;51.966;6.292;2023-10-13T04:53:13;22.30;69.80
44537;DHT22;30245;51.966;6.292;2023-10-13T04:55:55;22.30;69.80
44537;DHT22;30245;51.966;6.292;2023-10-13T04:58:33;22.30;69.90
44537;DHT22;30245;51.966;6.292;2023-10-13T05:01:00;22.30;69.80
44537;DHT22;30245;51.966;6.292;2023-10-13T05:03:44;22.40;69.90
44537;DHT22;30245;51.966;6.292;2023-10-13T05:06:38;22.30;69.90
44537;DHT22;30245;51.966;6.292;2023-10-13T05:09:13;22.30;70.10
44537;DHT22;30245;51.966;6.292;2023-10-13T05:11:57;22.20;70.30
44537;DHT22;30245;51.966;6.292;2023-10-13T05:14:42;22.20;70.40
44537;DHT22;30245;51.966;6.292;2023-10-13T05:17:26;22.30;70.50
44537;DHT22;30245;51.966;6.292;2023-10-13T05:20:10;22.30;70.50
44537;DHT22;30245;51.966;6.292;2023-10-13T05:22:54;22.30;70.60
44537;DHT22;30245;51.966;6.292;2023-10-13T05:25:38;22.30;70.80
44537;DHT22;30245;51.966;6.292;2023-10-13T05:28:23;22.30;71.00
44537;DHT22;30245;51.966;6.292;2023-10-13T05:31:07;22.20;71.50
44537;DHT22;30245;51.966;6.292;2023-10-13T05:33:51;22.20;71.70
44537;DHT22;30245;51.966;6.292;2023-10-13T05:36:36;22.30;71.90
44537;DHT22;30245;51.966;6.292;2023-10-13T05:39:20;22.30;71.90
44537;DHT22;30245;51.966;6.292;2023-10-13T05:42:04;22.40;71.90
44537;DHT22;30245;51.966;6.292;2023-10-13T05:44:49;22.40;72.00
44537;DHT22;30245;51.966;6.292;2023-10-13T05:47:33;22.40;72.40
44537;DHT22;30245;51.966;6.292;2023-10-13T05:50:09;22.40;72.60
44537;DHT22;30245;51.966;6.292;2023-10-13T05:52:47;22.40;72.60
44537;DHT22;30245;51.966;6.292;2023-10-13T05:55:29;22.50;72.60
44537;DHT22;30245;51.966;6.292;2023-10-13T05:58:15;22.50;72.60
44537;DHT22;30245;51.966;6.292;2023-10-13T06:00:59;22.70;73.20
44537;DHT22;30245;51.966;6.292;2023-10-13T06:03:43;22.70;72.30
44537;DHT22;30245;51.966;6.292;2023-10-13T06:06:27;22.80;72.20
44537;DHT22;30245;51.966;6.292;2023-10-13T06:09:12;22.80;72.40
44537;DHT22;30245;51.966;6.292;2023-10-13T06:11:56;22.70;72.60
44537;DHT22;30245;51.966;6.292;2023-10-13T06:14:40;22.80;72.70
44537;DHT22;30245;51.966;6.292;2023-10-13T06:17:24;22.90;72.40
44537;DHT22;30245;51.966;6.292;2023-10-13T06:20:08;23.00;72.10
44537;DHT22;30245;51.966;6.292;2023-10-13T06:22:52;23.00;72.00
44537;DHT22;30245;51.966;6.292;2023-10-13T06:25:37;23.00;72.00
44537;DHT22;30245;51.966;6.292;2023-10-13T06:28:22;22.90;72.40
44537;DHT22;30245;51.966;6.292;2023-10-13T06:31:07;22.90;72.30
44537;DHT22;30245;51.966;6.292;2023-10-13T06:33:33;23.00;72.10
44537;DHT22;30245;51.966;6.292;2023-10-13T06:36:07;23.00;72.10
44537;DHT22;30245;51.966;6.292;2023-10-13T06:38:35;23.00;72.20
44537;DHT22;30245;51.966;6.292;2023-10-13T06:41:05;23.00;72.30
44537;DHT22;30245;51.966;6.292;2023-10-13T06:43:35;22.90;72.30
44537;DHT22;30245;51.966;6.292;2023-10-13T06:46:09;23.00;72.40
44537;DHT22;30245;51.966;6.292;2023-10-13T06:48:40;23.00;72.20
44537;DHT22;30245;51.966;6.292;2023-10-13T06:51:07;23.00;72.10
44537;DHT22;30245;51.966;6.292;2023-10-13T06:53:47;23.10;71.90
44537;DHT22;30245;51.966;6.292;2023-10-13T06:56:17;23.20;72.30
44537;DHT22;30245;51.966;6.292;2023-10-13T06:58:51;23.20;71.50
44537;DHT22;30245;51.966;6.292;2023-10-13T07:01:17;23.30;71.30
44537;DHT22;30245;51.966;6.292;2023-10-13T07:03:48;23.30;71.20
44537;DHT22;30245;51.966;6.292;2023-10-13T07:06:20;23.30;71.20
44537;DHT22;30245;51.966;6.292;2023-10-13T07:08:47;23.40;71.20
44537;DHT22;30245;51.966;6.292;2023-10-13T07:11:18;23.40;71.00
44537;DHT22;30245;51.966;6.292;2023-10-13T07:13:59;23.40;71.10
44537;DHT22;30245;51.966;6.292;2023-10-13T07:16:24;23.40;71.10
44537;DHT22;30245;51.966;6.292;2023-10-13T07:18:50;23.40;71.00
44537;DHT22;30245;51.966;6.292;2023-10-13T07:21:18;23.40;71.10
44537;DHT22;30245;51.966;6.292;2023-10-13T07:23:50;23.50;71.00
44537;DHT22;30245;51.966;6.292;2023-10-13T07:26:26;23.50;70.90
44537;DHT22;30245;51.966;6.292;2023-10-13T07:28:53;23.40;70.90
44537;DHT22;30245;51.966;6.292;2023-10-13T07:31:19;23.40;71.00
44537;DHT22;30245;51.966;6.292;2023-10-13T07:33:46;23.40;70.90
44537;DHT22;30245;51.966;6.292;2023-10-13T07:36:12;23.40;70.90
44537;DHT22;30245;51.966;6.292;2023-10-13T07:38:45;23.40;71.00
44537;DHT22;30245;51.966;6.292;2023-10-13T07:41:17;23.40;70.90
44537;DHT22;30245;51.966;6.292;2023-10-13T07:43:47;23.40;70.70
44537;DHT22;30245;51.966;6.292;2023-10-13T07:46:14;23.50;70.60
44537;DHT22;30245;51.966;6.292;2023-10-13T07:48:40;23.50;70.40
44537;DHT22;30245;51.966;6.292;2023-10-13T07:51:09;23.40;70.40
44537;DHT22;30245;51.966;6.292;2023-10-13T07:53:39;23.40;70.60
44537;DHT22;30245;51.966;6.292;2023-10-13T07:56:09;23.40;70.60
44537;DHT22;30245;51.966;6.292;2023-10-13T07:58:37;23.30;70.60
44537;DHT22;30245;51.966;6.292;2023-10-13T08:01:13;23.40;70.60
44537;DHT22;30245;51.966;6.292;2023-10-13T08:03:43;23.40;70.20
44537;DHT22;30245;51.966;6.292;2023-10-13T08:06:15;23.50;70.30
44537;DHT22;30245;51.966;6.292;2023-10-13T08:08:41;23.40;70.10
44537;DHT22;30245;51.966;6.292;2023-10-13T08:11:11;23.50;70.30
44537;DHT22;30245;51.966;6.292;2023-10-13T08:14:06;23.50;70.10
44537;DHT22;30245;51.966;6.292;2023-10-13T08:16:47;23.60;69.90
44537;DHT22;30245;51.966;6.292;2023-10-13T08:19:26;23.60;69.90
44537;DHT22;30245;51.966;6.292;2023-10-13T08:22:17;23.60;69.80
44537;DHT22;30245;51.966;6.292;2023-10-13T08:24:46;23.60;69.70
44537;DHT22;30245;51.966;6.292;2023-10-13T08:27:13;23.60;69.80
44537;DHT22;30245;51.966;6.292;2023-10-13T08:29:57;23.50;69.90
44537;DHT22;30245;51.966;6.292;2023-10-13T08:32:27;23.50;70.10
44537;DHT22;30245;51.966;6.292;2023-10-13T08:35:02;23.50;70.30
44537;DHT22;30245;51.966;6.292;2023-10-13T08:37:30;23.50;70.30
44537;DHT22;30245;51.966;6.292;2023-10-13T08:40:00;23.60;70.30
44537;DHT22;30245;51.966;6.292;2023-10-13T08:42:38;23.60;70.10
44537;DHT22;30245;51.966;6.292;2023-10-13T08:45:11;23.70;69.90
44537;DHT22;30245;51.966;6.292;2023-10-13T08:48:00;23.90;69.80
44537;DHT22;30245;51.966;6.292;2023-10-13T08:50:51;24.00;69.20
44537;DHT22;30245;51.966;6.292;2023-10-13T08:53:24;24.10;68.90
44537;DHT22;30245;51.966;6.292;2023-10-13T08:56:06;24.20;69.10
44537;DHT22;30245;51.966;6.292;2023-10-13T08:58:45;24.20;69.00
44537;DHT22;30245;51.966;6.292;2023-10-13T09:01:29;24.40;68.90
44537;DHT22;30245;51.966;6.292;2023-10-13T09:09:31;24.80;67.50
44537;DHT22;30245;51.966;6.292;2023-10-13T09:14:42;24.90;66.80
44537;DHT22;30245;51.966;6.292;2023-10-13T09:17:10;25.00;66.50
44537;DHT22;30245;51.966;6.292;2023-10-13T09:19:55;25.10;66.00
44537;DHT22;30245;51.966;6.292;2023-10-13T09:22:26;25.20;65.90
44537;DHT22;30245;51.966;6.292;2023-10-13T09:25:02;25.30;65.40
44537;DHT22;30245;51.966;6.292;2023-10-13T09:27:31;25.30;65.30
44537;DHT22;30245;51.966;6.292;2023-10-13T09:30:03;25.30;65.30
44537;DHT22;30245;51.966;6.292;2023-10-13T09:32:35;25.30;65.10
44537;DHT22;30245;51.966;6.292;2023-10-13T09:35:20;25.20;64.80
44537;DHT22;30245;51.966;6.292;2023-10-13T09:37:52;25.20;64.90
44537;DHT22;30245;51.966;6.292;2023-10-13T09:40:22;25.30;65.00
44537;DHT22;30245;51.966;6.292;2023-10-13T09:42:55;25.30;64.40
44537;DHT22;30245;51.966;6.292;2023-10-13T09:45:40;25.30;64.20
44537;DHT22;30245;51.966;6.292;2023-10-13T09:48:10;25.30;64.00
44537;DHT22;30245;51.966;6.292;2023-10-13T09:50:43;25.30;64.00
44537;DHT22;30245;51.966;6.292;2023-10-13T09:53:11;25.20;63.80
44537;DHT22;30245;51.966;6.292;2023-10-13T09:55:43;25.20;63.70
44537;DHT22;30245;51.966;6.292;2023-10-13T09:58:11;25.20;63.50
44537;DHT22;30245;51.966;6.292;2023-10-13T10:00:52;25.10;63.20
44537;DHT22;30245;51.966;6.292;2023-10-13T10:03:31;25.10;63.00
44537;DHT22;30245;51.966;6.292;2023-10-13T10:06:01;25.10;63.00
44537;DHT22;30245;51.966;6.292;2023-10-13T10:08:34;25.20;62.90
44537;DHT22;30245;51.966;6.292;2023-10-13T10:11:07;25.20;62.80
44537;DHT22;30245;51.966;6.292;2023-10-13T10:19:33;25.10;62.00
44537;DHT22;30245;51.966;6.292;2023-10-13T10:22:04;25.10;61.80
44537;DHT22;30245;51.966;6.292;2023-10-13T10:24:42;25.10;61.60
44537;DHT22;30245;51.966;6.292;2023-10-13T10:27:09;25.20;61.60
44537;DHT22;30245;51.966;6.292;2023-10-13T10:29:40;25.20;61.50
44537;DHT22;30245;51.966;6.292;2023-10-13T10:32:13;25.20;61.20
44537;DHT22;30245;51.966;6.292;2023-10-13T10:34:39;25.20;61.10
44537;DHT22;30245;51.966;6.292;2023-10-13T10:37:05;25.30;60.90
44537;DHT22;30245;51.966;6.292;2023-10-13T10:39:35;25.30;60.60
44537;DHT22;30245;51.966;6.292;2023-10-13T10:42:15;25.40;60.40
44537;DHT22;30245;51.966;6.292;2023-10-13T10:44:42;25.40;60.30
44537;DHT22;30245;51.966;6.292;2023-10-13T10:47:14;25.40;60.40
44537;DHT22;30245;51.966;6.292;2023-10-13T10:49:59;25.40;60.20
44537;DHT22;30245;51.966;6.292;2023-10-13T10:52:27;25.50;59.90
44537;DHT22;30245;51.966;6.292;2023-10-13T10:55:01;25.50;59.50
44537;DHT22;30245;51.966;6.292;2023-10-13T10:57:26;25.50;59.50
44537;DHT22;30245;51.966;6.292;2023-10-13T11:00:05;25.50;59.50
44537;DHT22;30245;51.966;6.292;2023-10-13T11:02:38;25.50;59.50
44537;DHT22;30245;51.966;6.292;2023-10-13T11:05:04;25.60;59.20
44537;DHT22;30245;51.966;6.292;2023-10-13T11:07:31;25.60;59.10
44537;DHT22;30245;51.966;6.292;2023-10-13T11:10:10;25.60;58.80
44537;DHT22;30245;51.966;6.292;2023-10-13T11:12:56;25.60;58.90
44537;DHT22;30245;51.966;6.292;2023-10-13T11:15:22;25.60;58.80
44537;DHT22;30245;51.966;6.292;2023-10-13T11:17:51;25.60;58.80
44537;DHT22;30245;51.966;6.292;2023-10-13T11:20:20;25.60;58.50
44537;DHT22;30245;51.966;6.292;2023-10-13T11:22:59;25.70;58.20
44537;DHT22;30245;51.966;6.292;2023-10-13T11:25:26;25.70;58.10
44537;DHT22;30245;51.966;6.292;2023-10-13T11:30:57;25.80;57.70
44537;DHT22;30245;51.966;6.292;2023-10-13T11:33:36;25.90;57.90
44537;DHT22;30245;51.966;6.292;2023-10-13T11:36:02;25.90;57.60
44537;DHT22;30245;51.966;6.292;2023-10-13T11:38:30;26.00;57.60
44537;DHT22;30245;51.966;6.292;2023-10-13T11:41:09;26.00;57.60
44537;DHT22;30245;51.966;6.292;2023-10-13T11:43:41;25.90;57.20
44537;DHT22;30245;51.966;6.292;2023-10-13T11:46:08;25.90;57.50
44537;DHT22;30245;51.966;6.292;2023-10-13T11:48:34;25.90;57.50
44537;DHT22;30245;51.966;6.292;2023-10-13T11:51:05;25.90;57.40
44537;DHT22;30245;51.966;6.292;2023-10-13T11:53:34;25.80;57.50
44537;DHT22;30245;51.966;6.292;2023-10-13T11:56:04;25.80;57.70
44537;DHT22;30245;51.966;6.292;2023-10-13T11:58:40;25.90;57.70
44537;DHT22;30245;51.966;6.292;2023-10-13T12:01:06;25.90;57.50
44537;DHT22;30245;51.966;6.292;2023-10-13T12:03:38;26.00;56.90
44537;DHT22;30245;51.966;6.292;2023-10-13T12:06:22;26.10;56.50
44537;DHT22;30245;51.966;6.292;2023-10-13T12:08:59;26.10;56.00
44537;DHT22;30245;51.966;6.292;2023-10-13T12:11:37;26.20;56.20
44537;DHT22;30245;51.966;6.292;2023-10-13T12:14:08;26.30;56.20
44537;DHT22;30245;51.966;6.292;2023-10-13T12:16:43;26.40;56.20
44537;DHT22;30245;51.966;6.292;2023-10-13T12:19:23;26.40;56.40
44537;DHT22;30245;51.966;6.292;2023-10-13T12:21:55;26.40;55.70
44537;DHT22;30245;51.966;6.292;2023-10-13T12:24:22;26.50;55.60
44537;DHT22;30245;51.966;6.292;2023-10-13T12:26:56;26.50;55.20
44537;DHT22;30245;51.966;6.292;2023-10-13T12:29:25;26.60;54.90
44537;DHT22;30245;51.966;6.292;2023-10-13T12:31:57;26.70;55.10
44537;DHT22;30245;51.966;6.292;2023-10-13T12:34:37;26.80;54.20
44537;DHT22;30245;51.966;6.292;2023-10-13T12:37:21;26.70;54.10
44537;DHT22;30245;51.966;6.292;2023-10-13T12:40:05;26.80;53.80
44537;DHT22;30245;51.966;6.292;2023-10-13T12:42:49;26.70;53.60
44537;DHT22;30245;51.966;6.292;2023-10-13T12:45:47;26.80;53.80
44537;DHT22;30245;51.966;6.292;2023-10-13T12:48:32;26.90;53.30
44537;DHT22;30245;51.966;6.292;2023-10-13T12:51:16;26.90;52.90
44537;DHT22;30245;51.966;6.292;2023-10-13T12:53:48;26.90;52.50
44537;DHT22;30245;51.966;6.292;2023-10-13T12:56:15;27.00;52.60
44537;DHT22;30245;51.966;6.292;2023-10-13T12:58:41;27.00;52.20
44537;DHT22;30245;51.966;6.292;2023-10-13T13:01:07;27.00;52.20
44537;DHT22;30245;51.966;6.292;2023-10-13T13:03:33;27.10;52.30
44537;DHT22;30245;51.966;6.292;2023-10-13T13:05:59;27.10;51.70
44537;DHT22;30245;51.966;6.292;2023-10-13T13:08:26;27.20;52.00
44537;DHT22;30245;51.966;6.292;2023-10-13T13:10:51;27.20;51.90
44537;DHT22;30245;51.966;6.292;2023-10-13T13:13:17;27.20;51.90
44537;DHT22;30245;51.966;6.292;2023-10-13T13:15:50;27.20;52.00
44537;DHT22;30245;51.966;6.292;2023-10-13T13:18:15;27.10;52.10
44537;DHT22;30245;51.966;6.292;2023-10-13T13:20:41;27.20;52.20
44537;DHT22;30245;51.966;6.292;2023-10-13T13:23:18;27.20;52.20
44537;DHT22;30245;51.966;6.292;2023-10-13T13:25:47;27.20;52.00
44537;DHT22;30245;51.966;6.292;2023-10-13T13:28:13;27.20;52.00
44537;DHT22;30245;51.966;6.292;2023-10-13T13:30:44;27.20;51.80
44537;DHT22;30245;51.966;6.292;2023-10-13T13:33:09;27.20;51.70
44537;DHT22;30245;51.966;6.292;2023-10-13T13:35:39;27.20;51.70
44537;DHT22;30245;51.966;6.292;2023-10-13T13:38:08;27.20;51.90
44537;DHT22;30245;51.966;6.292;2023-10-13T13:40:47;27.20;51.90
44537;DHT22;30245;51.966;6.292;2023-10-13T13:43:15;27.20;52.00
44537;DHT22;30245;51.966;6.292;2023-10-13T13:46:00;27.20;52.00
44537;DHT22;30245;51.966;6.292;2023-10-13T13:48:28;27.20;52.00
44537;DHT22;30245;51.966;6.292;2023-10-13T13:50:54;27.20;51.90
44537;DHT22;30245;51.966;6.292;2023-10-13T13:53:30;27.20;52.00
44537;DHT22;30245;51.966;6.292;2023-10-13T13:56:01;27.20;51.70
44537;DHT22;30245;51.966;6.292;2023-10-13T13:58:27;27.20;51.70
44537;DHT22;30245;51.966;6.292;2023-10-13T14:01:02;27.20;51.50
44537;DHT22;30245;51.966;6.292;2023-10-13T14:03:39;27.20;52.00
44537;DHT22;30245;51.966;6.292;2023-10-13T14:06:11;27.20;51.20
44537;DHT22;30245;51.966;6.292;2023-10-13T14:08:43;27.20;51.10
44537;DHT22;30245;51.966;6.292;2023-10-13T14:11:10;27.20;51.10
44537;DHT22;30245;51.966;6.292;2023-10-13T14:13:39;27.20;51.20
44537;DHT22;30245;51.966;6.292;2023-10-13T14:16:18;27.20;51.40
44537;DHT22;30245;51.966;6.292;2023-10-13T14:18:48;27.20;51.50
44537;DHT22;30245;51.966;6.292;2023-10-13T14:21:14;27.20;51.40
44537;DHT22;30245;51.966;6.292;2023-10-13T14:23:46;27.10;51.20
44537;DHT22;30245;51.966;6.292;2023-10-13T14:26:16;27.10;51.40
44537;DHT22;30245;51.966;6.292;2023-10-13T14:28:51;27.10;51.00
44537;DHT22;30245;51.966;6.292;2023-10-13T14:31:36;27.20;51.10
44537;DHT22;30245;51.966;6.292;2023-10-13T14:34:14;27.20;50.90
44537;DHT22;30245;51.966;6.292;2023-10-13T14:36:40;27.20;50.80
44537;DHT22;30245;51.966;6.292;2023-10-13T14:39:06;27.10;50.70
44537;DHT22;30245;51.966;6.292;2023-10-13T14:41:35;27.10;50.70
44537;DHT22;30245;51.966;6.292;2023-10-13T14:44:01;27.00;50.40
44537;DHT22;30245;51.966;6.292;2023-10-13T14:46:30;27.00;50.80
44537;DHT22;30245;51.966;6.292;2023-10-13T14:48:56;27.00;50.70
44537;DHT22;30245;51.966;6.292;2023-10-13T14:51:22;27.00;50.70
44537;DHT22;30245;51.966;6.292;2023-10-13T14:53:50;27.00;50.80
44537;DHT22;30245;51.966;6.292;2023-10-13T14:56:21;27.00;50.70
44537;DHT22;30245;51.966;6.292;2023-10-13T14:58:51;27.00;50.50
44537;DHT22;30245;51.966;6.292;2023-10-13T15:01:18;27.00;50.50
44537;DHT22;30245;51.966;6.292;2023-10-13T15:03:44;27.00;50.30
44537;DHT22;30245;51.966;6.292;2023-10-13T15:06:17;27.00;50.40
44537;DHT22;30245;51.966;6.292;2023-10-13T15:08:44;27.00;50.40
44537;DHT22;30245;51.966;6.292;2023-10-13T15:11:12;27.00;50.30
44537;DHT22;30245;51.966;6.292;2023-10-13T15:13:41;27.00;50.40
44537;DHT22;30245;51.966;6.292;2023-10-13T15:16:24;27.00;50.40
44537;DHT22;30245;51.966;6.292;2023-10-13T15:18:51;26.90;50.40
44537;DHT22;30245;51.966;6.292;2023-10-13T15:21:21;26.90;50.40
44537;DHT22;30245;51.966;6.292;2023-10-13T15:23:48;26.90;50.40
44537;DHT22;30245;51.966;6.292;2023-10-13T15:26:19;26.90;50.50
44537;DHT22;30245;51.966;6.292;2023-10-13T15:28:50;27.00;50.60
44537;DHT22;30245;51.966;6.292;2023-10-13T15:31:19;26.90;50.50
44537;DHT22;30245;51.966;6.292;2023-10-13T15:33:51;26.90;50.60
44537;DHT22;30245;51.966;6.292;2023-10-13T15:36:23;26.80;50.80
44537;DHT22;30245;51.966;6.292;2023-10-13T15:38:53;26.80;51.10
44537;DHT22;30245;51.966;6.292;2023-10-13T15:41:26;26.80;51.20
44537;DHT22;30245;51.966;6.292;2023-10-13T15:43:52;26.70;51.30
44537;DHT22;30245;51.966;6.292;2023-10-13T15:46:21;26.60;51.60
44537;DHT22;30245;51.966;6.292;2023-10-13T15:48:51;26.50;51.80
44537;DHT22;30245;51.966;6.292;2023-10-13T15:51:17;26.50;52.00
44537;DHT22;30245;51.966;6.292;2023-10-13T15:53:43;26.50;52.40
44537;DHT22;30245;51.966;6.292;2023-10-13T15:56:10;26.40;52.80
44537;DHT22;30245;51.966;6.292;2023-10-13T15:58:46;26.30;53.10
44537;DHT22;30245;51.966;6.292;2023-10-13T16:01:13;26.20;53.30
44537;DHT22;30245;51.966;6.292;2023-10-13T16:03:40;26.10;53.50
44537;DHT22;30245;51.966;6.292;2023-10-13T16:06:06;26.10;53.70
44537;DHT22;30245;51.966;6.292;2023-10-13T16:08:41;26.10;53.90
44537;DHT22;30245;51.966;6.292;2023-10-13T16:11:12;26.00;54.10
44537;DHT22;30245;51.966;6.292;2023-10-13T16:13:46;26.00;54.40
44537;DHT22;30245;51.966;6.292;2023-10-13T16:16:15;25.90;54.70
44537;DHT22;30245;51.966;6.292;2023-10-13T16:18:45;25.90;54.90
44537;DHT22;30245;51.966;6.292;2023-10-13T16:21:11;25.80;55.10
44537;DHT22;30245;51.966;6.292;2023-10-13T16:23:47;25.70;55.40